Time;durP1;ratioP1;P1;durP2;ratioP2;P2;SDS_P1;SDS_P2;PMS_P1;PMS_P2;Temp;Humidity;BMP_temperature;BMP_pressure;BME280_temperature;BME280_humidity;BME280_pressure;Samples;Min_cycle;Max_cycle;Signal;HPM_P1;HPM_P2
2022/03/20 00:00:38;;;;;;;12.00;6.28;;;;;;;18.96;40.44;102467.56;5062969;28;20509;-43
2022/03/20 00:03:09;;;;;;;11.27;6.40;;;;;;;18.94;40.43;102467.69;5065761;28;20028;-40
2022/03/20 00:05:38;;;;;;;11.50;7.18;;;;;;;18.96;40.42;102472.84;5066758;28;20032;-40
2022/03/20 00:08:08;;;;;;;9.82;6.10;;;;;;;18.96;40.34;102472.84;5064237;28;20468;-43
2022/03/20 00:10:35;;;;;;;10.48;5.68;;;;;;;18.95;40.29;102472.00;5042419;28;20035;-42
2022/03/20 00:13:02;;;;;;;10.48;6.35;;;;;;;18.95;40.25;102465.88;5064574;28;20044;-41
2022/03/20 00:15:30;;;;;;;7.47;6.32;;;;;;;18.95;40.18;102465.88;5062091;28;20448;-40
2022/03/20 00:17:55;;;;;;;7.60;6.82;;;;;;;18.94;40.31;102465.06;5048105;28;20484;-42
2022/03/20 00:20:22;;;;;;;9.48;6.05;;;;;;;18.96;40.34;102462.28;5067000;28;20060;-40
2022/03/20 00:22:47;;;;;;;9.43;6.68;;;;;;;18.95;40.20;102458.78;5064284;28;20353;-40
2022/03/20 00:25:13;;;;;;;10.30;6.45;;;;;;;18.96;40.25;102464.91;5065023;28;20083;-41
2022/03/20 00:27:39;;;;;;;9.05;6.22;;;;;;;18.96;40.26;102465.75;5066237;28;20395;-40
2022/03/20 00:30:05;;;;;;;9.02;6.30;;;;;;;18.96;40.18;102472.84;5061148;28;20495;-40
2022/03/20 00:32:31;;;;;;;8.77;6.32;;;;;;;18.96;40.37;102467.56;5065750;28;20052;-40
2022/03/20 00:34:59;;;;;;;7.43;6.18;;;;;;;18.95;40.26;102472.00;5065500;28;20021;-40
2022/03/20 00:37:28;;;;;;;7.15;6.45;;;;;;;18.96;40.34;102462.28;5065772;28;20040;-45
2022/03/20 00:39:55;;;;;;;7.00;6.20;;;;;;;18.95;40.28;102464.09;5062320;28;20033;-40
2022/03/20 00:42:21;;;;;;;8.25;6.70;;;;;;;18.94;40.13;102466.88;5063941;28;20487;-42
2022/03/20 00:44:46;;;;;;;7.20;6.50;;;;;;;18.94;40.22;102466.88;5063819;28;20021;-40
2022/03/20 00:47:13;;;;;;;8.60;6.70;;;;;;;18.93;40.21;102467.84;5064472;28;20471;-40
2022/03/20 00:49:39;;;;;;;8.68;6.53;;;;;;;18.92;40.25;102466.19;5064175;28;20028;-41
2022/03/20 00:52:06;;;;;;;8.82;6.45;;;;;;;18.90;40.33;102461.88;5063947;28;20400;-40
2022/03/20 00:54:32;;;;;;;8.00;6.65;;;;;;;18.90;40.54;102456.59;5065083;28;20111;-40
2022/03/20 00:56:58;;;;;;;8.88;6.22;;;;;;;18.88;40.45;102455.97;5068177;28;20029;-40
2022/03/20 00:59:23;;;;;;;7.50;6.45;;;;;;;18.88;40.41;102461.25;5067541;28;20031;-42
2022/03/20 01:01:49;;;;;;;8.48;6.07;;;;;;;18.89;40.58;102457.63;5066010;28;20388;-40
2022/03/20 01:04:16;;;;;;;7.20;5.82;;;;;;;18.89;40.39;102462.91;5068150;28;20031;-42
2022/03/20 01:06:42;;;;;;;6.80;6.05;;;;;;;18.89;40.44;102454.16;5049532;28;20040;-40
2022/03/20 01:09:08;;;;;;;10.27;6.38;;;;;;;18.89;40.32;102457.63;5068733;28;20035;-40
2022/03/20 01:11:34;;;;;;;7.57;6.18;;;;;;;18.89;40.42;102457.63;5068167;28;20040;-40
2022/03/20 01:14:00;;;;;;;6.68;6.00;;;;;;;18.88;40.34;102458.59;5067201;28;20109;-40
2022/03/20 01:16:26;;;;;;;8.02;5.72;;;;;;;18.88;40.48;102455.97;5064675;28;20518;-40
2022/03/20 01:18:51;;;;;;;8.23;5.75;;;;;;;18.87;40.43;102459.56;5064429;28;20028;-40
2022/03/20 01:21:18;;;;;;;9.25;6.22;;;;;;;18.86;40.56;102460.56;5069226;28;20025;-40
2022/03/20 01:23:45;;;;;;;10.80;6.55;;;;;;;18.85;40.47;102456.25;5068178;28;20136;-40
2022/03/20 01:26:11;;;;;;;8.57;6.70;;;;;;;18.85;40.39;102455.44;5067093;28;20044;-40
2022/03/20 01:28:37;;;;;;;11.35;6.30;;;;;;;18.85;40.57;102458.06;5068132;28;20020;-40
2022/03/20 01:31:02;;;;;;;9.90;6.40;;;;;;;18.84;40.48;102454.59;5064576;28;20036;-40
2022/03/20 01:33:28;;;;;;;9.30;6.38;;;;;;;18.82;40.67;102453.91;5068311;28;20021;-40
2022/03/20 01:35:53;;;;;;;9.50;6.72;;;;;;;18.81;40.65;102454.91;5066916;28;20033;-41
2022/03/20 01:38:20;;;;;;;6.82;6.13;;;;;;;18.80;40.61;102458.50;5069337;28;20067;-41
2022/03/20 01:40:49;;;;;;;6.60;5.82;;;;;;;18.79;40.68;102451.56;5067056;28;20028;-40
2022/03/20 01:43:16;;;;;;;6.20;5.60;;;;;;;18.78;40.67;102457.00;5064473;28;20468;-40
2022/03/20 01:45:42;;;;;;;8.80;6.30;;;;;;;18.79;40.69;102456.84;5066869;28;20028;-41
2022/03/20 01:48:08;;;;;;;7.70;6.05;;;;;;;18.79;40.81;102454.22;5065376;28;20521;-40
2022/03/20 01:50:35;;;;;;;7.57;5.90;;;;;;;18.77;40.85;102450.06;5068015;28;20036;-40
2022/03/20 01:53:01;;;;;;;7.07;6.43;;;;;;;18.77;40.86;102457.97;5066562;28;20024;-40
2022/03/20 01:55:28;;;;;;;8.80;6.28;;;;;;;18.76;40.91;102451.88;5068814;28;20028;-42
2022/03/20 01:57:56;;;;;;;8.48;5.63;;;;;;;18.74;40.90;102448.56;5047205;28;20128;-40
2022/03/20 02:00:24;;;;;;;6.60;5.78;;;;;;;18.75;41.04;102444.94;5068354;28;20503;-41
2022/03/20 02:02:51;;;;;;;7.80;6.43;;;;;;;18.73;40.86;102441.59;5048515;28;20086;-41
2022/03/20 02:05:17;;;;;;;9.57;6.85;;;;;;;18.73;40.87;102438.13;5068160;28;20039;-40
2022/03/20 02:07:44;;;;;;;6.82;6.13;;;;;;;18.74;41.02;102448.56;5065909;28;20036;-41
2022/03/20 02:12:45;;;;;;;6.68;5.38;;;;;;;18.74;40.95;102443.28;5059815;22;20469;-40
2022/03/20 02:15:14;;;;;;;6.53;5.60;;;;;;;18.74;40.86;102442.44;5088172;28;20024;-40
2022/03/20 02:17:43;;;;;;;7.40;6.05;;;;;;;18.74;40.83;102445.91;5087920;28;20016;-41
2022/03/20 02:20:10;;;;;;;8.40;5.97;;;;;;;18.75;40.77;102444.94;5088145;28;20024;-40
2022/03/20 02:22:44;;;;;;;6.97;5.65;;;;;;;18.73;40.89;102444.25;5087869;28;20386;-40
2022/03/20 02:25:14;;;;;;;6.47;5.68;;;;;;;18.74;40.93;102445.91;5087703;28;20089;-40
2022/03/20 02:27:39;;;;;;;7.47;6.28;;;;;;;18.74;40.87;102435.34;5069464;28;20067;-40
2022/03/20 02:30:12;;;;;;;7.05;6.35;;;;;;;18.74;40.78;102435.34;5087996;28;20031;-40
2022/03/20 02:32:39;;;;;;;6.25;5.43;;;;;;;18.74;40.99;102426.59;5087625;28;20080;-40
2022/03/20 02:35:07;;;;;;;6.03;5.43;;;;;;;18.74;40.90;102431.88;5087457;28;20051;-40
2022/03/20 02:37:34;;;;;;;7.55;5.70;;;;;;;18.75;40.89;102444.09;5087619;28;20028;-40
2022/03/20 02:40:03;;;;;;;5.50;4.93;;;;;;;18.74;40.94;102432.72;5087876;28;20387;-40
2022/03/20 02:42:29;;;;;;;7.88;5.80;;;;;;;18.76;40.89;102449.22;5087673;28;20043;-40
2022/03/20 02:45:03;;;;;;;6.00;5.32;;;;;;;18.75;40.84;102442.28;5087513;28;20035;-40
2022/03/20 02:47:31;;;;;;;5.70;5.18;;;;;;;18.74;40.92;102445.91;5087300;28;20089;-40
2022/03/20 02:49:58;;;;;;;6.10;5.32;;;;;;;18.75;40.81;102442.28;5087383;28;20466;-40
2022/03/20 02:52:29;;;;;;;6.78;5.60;;;;;;;18.74;40.70;102445.91;5087216;28;20448;-40
2022/03/20 02:54:58;;;;;;;7.18;5.13;;;;;;;18.75;40.76;102439.66;5087398;28;20470;-40
2022/03/20 02:57:24;;;;;;;6.07;5.30;;;;;;;18.75;40.64;102438.81;5087168;28;20113;-40
2022/03/20 02:59:49;;;;;;;8.50;5.78;;;;;;;18.76;40.87;102451.03;5087280;28;20100;-40
2022/03/20 03:02:15;;;;;;;6.15;5.55;;;;;;;18.75;40.95;102449.38;5087174;28;20383;-40
2022/03/20 03:04:41;;;;;;;6.30;5.32;;;;;;;18.74;40.96;102445.91;5068666;28;20023;-40
2022/03/20 03:07:08;;;;;;;6.65;5.93;;;;;;;18.74;41.08;102445.09;5086949;28;20036;-40
2022/03/20 03:12:18;;;;;;;6.35;5.72;;;;;;;18.69;41.02;102445.53;5087243;28;20502;-40
2022/03/20 03:17:27;;;;;;;6.97;6.32;;;;;;;18.68;41.08;102450.94;5087354;28;20513;-40
2022/03/20 03:19:57;;;;;;;6.65;5.45;;;;;;;18.68;41.07;102458.88;5086578;28;20071;-40
2022/03/20 03:22:26;;;;;;;6.28;4.97;;;;;;;18.68;41.09;102458.88;5087237;28;20035;-42
2022/03/20 03:24:53;;;;;;;7.30;5.32;;;;;;;18.69;41.15;102450.81;5086938;28;20020;-40
2022/03/20 03:27:19;;;;;;;6.30;5.60;;;;;;;18.69;41.17;102460.53;5087087;28;20078;-40
2022/03/20 03:29:44;;;;;;;6.45;5.25;;;;;;;18.69;41.04;102468.47;5087123;28;20429;-40
2022/03/20 03:32:10;;;;;;;7.45;5.90;;;;;;;18.69;41.09;102468.47;5085499;28;20039;-40
2022/03/20 03:37:20;;;;;;;8.55;5.97;;;;;;;18.67;40.92;102463.31;5087242;28;20493;-40
2022/03/20 03:39:49;;;;;;;6.60;5.53;;;;;;;18.68;41.07;102472.06;5086941;28;20111;-40
2022/03/20 03:42:14;;;;;;;6.72;5.47;;;;;;;18.68;41.00;102472.06;5087196;28;20438;-40
2022/03/20 03:44:40;;;;;;;6.07;5.55;;;;;;;18.67;41.00;102473.88;5086951;28;20131;-40
2022/03/20 03:47:06;;;;;;;6.47;5.53;;;;;;;18.66;41.07;102463.47;5086588;28;20036;-40
2022/03/20 03:49:36;;;;;;;6.45;5.28;;;;;;;18.65;41.16;102472.38;5086800;28;20483;-40
2022/03/20 03:52:01;;;;;;;6.03;5.43;;;;;;;18.64;41.25;102470.72;5086400;28;20024;-40
2022/03/20 03:54:27;;;;;;;6.63;5.47;;;;;;;18.62;41.22;102462.09;5086310;28;20479;-40
2022/03/20 03:56:52;;;;;;;5.95;5.05;;;;;;;18.62;41.23;102470.84;5086230;28;20602;-40
2022/03/20 03:59:18;;;;;;;6.60;5.55;;;;;;;18.62;41.22;102470.03;5086585;28;20024;-40
2022/03/20 04:01:43;;;;;;;6.80;5.22;;;;;;;18.61;41.11;102476.28;5086288;28;20498;-40
2022/03/20 04:04:09;;;;;;;5.93;5.40;;;;;;;18.60;41.10;102478.09;5086230;28;20034;-40
2022/03/20 04:06:35;;;;;;;6.10;5.50;;;;;;;18.58;41.22;102480.84;5086288;28;20051;-40
2022/03/20 04:09:00;;;;;;;6.40;5.32;;;;;;;18.58;41.19;102475.56;5086197;28;20116;-40
2022/03/20 04:11:27;;;;;;;6.45;5.85;;;;;;;18.58;41.12;102477.38;5085984;28;20509;-40
2022/03/20 04:13:52;;;;;;;7.55;5.95;;;;;;;18.57;41.09;102487.09;5086351;28;20510;-41
2022/03/20 04:16:18;;;;;;;5.70;5.05;;;;;;;18.56;41.21;102487.25;5086186;28;20029;-41
2022/03/20 04:18:44;;;;;;;7.78;5.38;;;;;;;18.56;41.21;102484.63;5086211;28;20313;-40
2022/03/20 04:21:12;;;;;;;6.57;5.55;;;;;;;18.56;41.39;102487.25;5086106;28;20028;-40
2022/03/20 04:23:49;;;;;;;5.35;4.85;;;;;;;18.55;41.54;102490.88;5085999;28;20119;-40
2022/03/20 04:26:17;;;;;;;5.68;5.18;;;;;;;18.53;41.54;102491.03;5086330;28;20054;-40
2022/03/20 04:28:47;;;;;;;5.53;5.03;;;;;;;18.53;41.59;102488.38;5086122;28;20031;-41
2022/03/20 04:31:16;;;;;;;5.50;5.05;;;;;;;18.52;41.47;102492.00;5087101;28;20120;-40
2022/03/20 04:33:47;;;;;;;5.57;5.07;;;;;;;18.53;41.39;102492.81;5089678;28;20043;-40
2022/03/20 04:36:13;;;;;;;5.32;4.82;;;;;;;18.54;41.35;102499.78;5089823;28;20116;-40
2022/03/20 04:38:38;;;;;;;5.50;4.47;;;;;;;18.55;41.32;102506.72;5089863;28;20097;-40
2022/03/20 04:41:04;;;;;;;5.38;4.88;;;;;;;18.55;41.29;102501.44;5090017;28;20035;-40
2022/03/20 04:43:30;;;;;;;6.00;4.97;;;;;;;18.56;41.30;102503.09;5089859;28;20051;-40
2022/03/20 04:45:56;;;;;;;5.85;4.70;;;;;;;18.55;41.23;102504.06;5089557;28;20487;-40
2022/03/20 04:59:18;;;;;;;5.00;4.50;;;;;;;18.53;41.27;102509.50;5089702;28;20051;-40
2022/03/20 05:01:44;;;;;;;4.70;4.30;;;;;;;18.55;41.29;102512.00;5071166;28;20429;-40
2022/03/20 05:04:10;;;;;;;5.90;5.30;;;;;;;18.55;41.17;102507.53;5089689;28;20108;-40
2022/03/20 05:06:35;;;;;;;5.25;4.75;;;;;;;18.56;41.37;102511.84;5089251;28;20032;-40
2022/03/20 05:14:29;;;;;;;4.82;4.43;;;;;;;18.55;41.30;102525.19;5089305;28;20265;-40
2022/03/20 05:16:54;;;;;;;4.63;4.22;;;;;;;18.57;41.27;102531.16;5089675;28;20236;-40
2022/03/20 05:19:20;;;;;;;5.63;5.00;;;;;;;18.57;41.28;102528.50;5088951;28;20038;-40
2022/03/20 05:21:47;;;;;;;5.40;4.90;;;;;;;18.56;41.37;102534.78;5089052;28;20058;-40
2022/03/20 05:24:13;;;;;;;5.30;4.80;;;;;;;18.56;41.37;102546.16;5088802;28;20479;-40
2022/03/20 05:26:39;;;;;;;5.28;4.78;;;;;;;18.56;41.29;102540.88;5070432;28;20043;-40
2022/03/20 05:29:05;;;;;;;5.78;5.18;;;;;;;18.54;41.19;102532.28;5088947;28;20028;-40
2022/03/20 05:31:31;;;;;;;5.97;4.75;;;;;;;18.53;41.16;102541.19;5089109;28;20073;-40
2022/03/20 05:33:57;;;;;;;5.22;4.65;;;;;;;18.52;41.32;102543.97;5087039;28;20024;-39
2022/03/20 05:36:22;;;;;;;6.07;5.00;;;;;;;18.51;41.33;102544.94;5070635;28;20055;-40
2022/03/20 05:38:48;;;;;;;5.60;5.03;;;;;;;18.51;41.40;102547.56;5088509;28;20024;-40
2022/03/20 05:43:57;;;;;;;4.68;4.10;;;;;;;18.49;41.36;102538.97;5088165;28;20122;-40
2022/03/20 05:46:24;;;;;;;5.53;4.95;;;;;;;18.48;41.35;102543.41;5088320;28;20114;-40
2022/03/20 05:48:51;;;;;;;5.40;4.90;;;;;;;18.50;41.16;102541.47;5086965;28;20032;-40
2022/03/20 05:51:16;;;;;;;5.13;4.63;;;;;;;18.51;41.34;102544.94;5088318;28;20028;-40
2022/03/20 05:53:42;;;;;;;5.55;5.05;;;;;;;18.50;41.26;102545.91;5088174;28;20042;-40
2022/03/20 05:58:51;;;;;;;5.35;4.85;;;;;;;18.50;41.20;102556.47;5088617;28;20047;-42
2022/03/20 06:01:17;;;;;;;5.47;4.97;;;;;;;18.51;41.11;102551.03;5080666;28;20024;-40
2022/03/20 06:03:42;;;;;;;5.38;4.88;;;;;;;18.49;41.09;102550.34;5078602;28;20044;-40
2022/03/20 06:06:08;;;;;;;5.72;5.07;;;;;;;18.49;41.11;102555.63;5084031;28;20024;-40
2022/03/20 06:08:35;;;;;;;5.28;4.60;;;;;;;18.48;41.22;102546.06;5086584;28;20027;-40
2022/03/20 06:11:01;;;;;;;5.10;4.40;;;;;;;18.48;40.96;102547.88;5083954;28;20024;-41
2022/03/20 06:13:28;;;;;;;5.28;4.78;;;;;;;18.47;41.12;102548.84;5068165;28;20037;-40
2022/03/20 06:15:57;;;;;;;5.22;4.72;;;;;;;18.46;41.18;102558.56;5068032;28;20506;-40
2022/03/20 06:18:25;;;;;;;4.45;4.05;;;;;;;18.45;41.24;102548.16;5086030;28;20569;-40
2022/03/20 06:20:52;;;;;;;5.43;4.93;;;;;;;18.45;41.29;102550.78;5068019;28;20028;-40
2022/03/20 06:23:17;;;;;;;5.85;4.93;;;;;;;18.44;41.29;102554.41;5072436;28;20024;-40
2022/03/20 06:25:43;;;;;;;5.53;3.90;;;;;;;18.43;41.91;102552.78;5087948;28;20185;-40
2022/03/20 06:28:09;;;;;;;5.68;4.97;;;;;;;18.44;41.64;102554.41;5071280;28;20036;-40
2022/03/20 06:30:35;;;;;;;5.13;4.72;;;;;;;18.44;41.59;102557.03;5086750;28;20055;-41
2022/03/20 06:33:05;;;;;;;5.03;4.53;;;;;;;18.43;41.58;102552.78;5072529;28;20033;-40
2022/03/20 06:35:31;;;;;;;7.90;4.85;;;;;;;18.42;41.60;102570.41;5074452;28;20028;-41
2022/03/20 06:37:57;;;;;;;6.88;4.97;;;;;;;18.41;41.66;102558.19;5068372;28;20032;-41
2022/03/20 06:40:23;;;;;;;5.63;4.75;;;;;;;18.41;41.72;102555.56;5086115;28;20543;-40
2022/03/20 06:42:48;;;;;;;6.28;5.18;;;;;;;18.41;41.80;102557.38;5084040;28;20028;-40
2022/03/20 06:45:14;;;;;;;6.20;5.07;;;;;;;18.41;41.80;102567.94;5067634;28;20482;-41
2022/03/20 06:47:42;;;;;;;5.60;4.97;;;;;;;18.41;41.75;102570.56;5086078;28;20031;-40
2022/03/20 06:50:09;;;;;;;6.15;4.57;;;;;;;18.39;41.78;102567.25;5075124;28;20028;-41
2022/03/20 06:52:38;;;;;;;7.78;4.75;;;;;;;18.38;41.64;102563.75;5070080;28;20086;-40
2022/03/20 06:55:04;;;;;;;5.07;4.68;;;;;;;18.39;41.87;102569.88;5069827;28;20056;-40
2022/03/20 06:57:30;;;;;;;7.07;5.10;;;;;;;18.40;41.87;102572.38;5066736;28;20032;-40
2022/03/20 07:00:00;;;;;;;5.20;4.40;;;;;;;18.40;41.83;102571.53;5079159;28;20032;-40
2022/03/20 07:02:26;;;;;;;6.68;3.65;;;;;;;18.41;41.65;102573.19;5069126;28;20119;-40
2022/03/20 07:04:53;;;;;;;5.72;5.07;;;;;;;18.41;41.70;102573.19;5065877;28;20058;-40
2022/03/20 07:07:20;;;;;;;4.32;3.92;;;;;;;18.41;41.69;102575.84;5080919;28;20071;-41
2022/03/20 07:09:46;;;;;;;4.95;4.30;;;;;;;18.42;41.72;102574.88;5078353;28;20386;-45
2022/03/20 07:12:12;;;;;;;5.53;4.85;;;;;;;18.41;41.88;102583.75;5085651;28;20197;-41
2022/03/20 07:14:39;;;;;;;5.00;3.80;;;;;;;18.43;42.17;102579.97;5079663;28;20206;-40
2022/03/20 07:17:10;;;;;;;4.55;4.10;;;;;;;18.44;42.39;102592.19;5087292;28;20043;-40
2022/03/20 07:19:38;;;;;;;3.88;3.53;;;;;;;18.47;42.68;102583.97;5076182;28;20029;-40
2022/03/20 07:22:07;;;;;;;4.25;3.63;;;;;;;18.52;42.92;102592.31;5077299;28;20035;-41
2022/03/20 07:24:33;;;;;;;6.10;3.83;;;;;;;18.55;43.10;102593.81;5073645;28;20032;-42
2022/03/20 07:29:43;;;;;;;5.97;4.80;;;;;;;18.63;43.37;102582.56;5079643;28;20054;-41
2022/03/20 07:32:09;;;;;;;4.10;3.75;;;;;;;18.67;43.14;102592.69;5085193;28;20036;-42
2022/03/20 07:34:36;;;;;;;5.00;3.90;;;;;;;18.73;43.17;102597.41;5071532;28;20242;-40
2022/03/20 07:37:03;;;;;;;6.22;5.07;;;;;;;18.77;43.28;102585.56;5066603;28;20073;-41
2022/03/20 07:39:30;;;;;;;4.25;3.63;;;;;;;18.82;43.26;102596.53;5066091;28;20033;-44
2022/03/20 07:41:56;;;;;;;4.75;4.25;;;;;;;18.86;43.25;102597.91;5067953;28;20368;-40
2022/03/20 07:44:23;;;;;;;4.35;3.92;;;;;;;18.92;43.18;102585.03;5076114;28;20387;-41
2022/03/20 07:46:49;;;;;;;4.65;4.25;;;;;;;18.97;43.15;102586.25;5083386;28;20502;-43
2022/03/20 07:49:15;;;;;;;4.43;4.03;;;;;;;19.03;43.21;102595.41;5067470;28;20067;-41
2022/03/20 07:51:42;;;;;;;4.88;3.88;;;;;;;19.08;43.06;102594.00;5066196;28;20470;-46
2022/03/20 07:54:08;;;;;;;5.18;4.32;;;;;;;19.13;43.24;102597.03;5082179;28;20024;-43
2022/03/20 07:56:36;;;;;;;6.38;4.45;;;;;;;19.15;43.24;102600.34;5081510;28;20035;-42
2022/03/20 07:59:05;;;;;;;4.05;3.65;;;;;;;19.19;43.14;102603.53;5084120;28;20060;-41
2022/03/20 08:01:32;;;;;;;4.95;4.20;;;;;;;19.21;43.10;102597.13;5073804;28;20033;-42
2022/03/20 08:03:58;;;;;;;4.47;3.35;;;;;;;19.25;42.99;102600.28;5070966;28;20514;-42
2022/03/20 08:06:24;;;;;;;4.32;3.92;;;;;;;19.28;42.92;102600.00;5082255;28;20065;-40
2022/03/20 08:08:49;;;;;;;4.25;3.83;;;;;;;19.31;42.91;102597.03;5080163;28;20467;-42
2022/03/20 08:11:15;;;;;;;4.45;3.90;;;;;;;19.35;42.83;102601.06;5087674;28;20194;-42
2022/03/20 08:13:43;;;;;;;5.68;3.72;;;;;;;19.37;42.81;102603.56;5088427;28;20036;-41
2022/03/20 08:16:15;;;;;;;3.90;3.50;;;;;;;19.38;42.72;102616.59;5084956;28;20032;-43
2022/03/20 08:18:43;;;;;;;4.75;3.67;;;;;;;19.39;42.83;102610.31;5081647;28;20024;-42
2022/03/20 08:21:09;;;;;;;3.90;3.58;;;;;;;19.41;42.62;102607.53;5084419;28;20394;-40
2022/03/20 08:23:36;;;;;;;3.63;3.33;;;;;;;19.42;42.37;102606.53;5066332;28;20032;-41
2022/03/20 08:26:01;;;;;;;3.42;3.10;;;;;;;19.42;42.25;102602.09;5086076;28;20219;-41
2022/03/20 08:28:27;;;;;;;3.72;3.40;;;;;;;19.41;42.58;102613.63;5087087;28;20114;-41
2022/03/20 08:30:52;;;;;;;3.33;3.00;;;;;;;19.40;42.39;102609.34;5075599;28;20028;-42
2022/03/20 08:33:18;;;;;;;4.38;3.63;;;;;;;19.39;42.39;102610.31;5088443;28;20055;-43
2022/03/20 08:35:44;;;;;;;4.32;3.35;;;;;;;19.39;42.41;102618.25;5087818;28;20089;-41
2022/03/20 08:38:09;;;;;;;4.70;3.55;;;;;;;19.38;42.16;102621.88;5069200;28;20414;-41
2022/03/20 08:40:35;;;;;;;3.92;3.45;;;;;;;19.37;42.35;102612.31;5078419;28;20055;-41
2022/03/20 08:43:04;;;;;;;4.18;3.58;;;;;;;19.37;42.13;102600.91;5084694;28;20028;-41
2022/03/20 08:45:31;;;;;;;3.58;2.90;;;;;;;19.37;42.29;102614.94;5082507;28;20476;-43
2022/03/20 08:47:57;;;;;;;5.32;3.60;;;;;;;19.37;42.10;102625.53;5082812;28;20032;-42
2022/03/20 08:50:24;;;;;;;4.70;3.17;;;;;;;19.37;42.08;102607.03;5087565;28;20036;-40
2022/03/20 08:52:50;;;;;;;4.10;3.47;;;;;;;19.35;42.15;102606.34;5083484;28;20475;-44
2022/03/20 08:55:16;;;;;;;3.67;2.95;;;;;;;19.36;42.02;102609.81;5076041;28;20063;-44
2022/03/20 08:57:52;;;;;;;3.97;3.58;;;;;;;19.33;41.87;102605.66;5086331;28;20055;-42
2022/03/20 09:00:20;;;;;;;4.97;3.40;;;;;;;19.34;42.03;102607.31;5080904;28;20279;-43
2022/03/20 09:02:47;;;;;;;5.03;3.08;;;;;;;19.34;42.20;102601.19;5089128;28;20522;-41
2022/03/20 09:05:13;;;;;;;4.22;3.72;;;;;;;19.34;41.80;102603.84;5077609;28;20383;-41
2022/03/20 09:07:39;;;;;;;4.55;3.97;;;;;;;19.32;41.74;102596.06;5089148;28;20039;-41
2022/03/20 09:10:06;;;;;;;4.68;2.67;;;;;;;19.32;41.65;102606.63;5082807;28;20032;-40
2022/03/20 09:12:32;;;;;;;3.40;3.00;;;;;;;19.31;41.55;102604.97;5088501;28;20040;-40
2022/03/20 09:14:57;;;;;;;3.70;2.67;;;;;;;19.31;41.43;102599.69;5082305;28;20044;-42
2022/03/20 09:20:07;;;;;;;3.78;3.30;;;;;;;19.29;41.09;102588.44;5084562;28;20473;-42
2022/03/20 09:22:34;;;;;;;5.07;3.67;;;;;;;19.31;41.04;102596.22;5081111;28;20028;-43
2022/03/20 09:25:00;;;;;;;4.90;3.83;;;;;;;19.31;40.88;102594.41;5080646;28;20511;-41
2022/03/20 09:27:25;;;;;;;4.03;3.17;;;;;;;19.31;40.95;102589.13;5079243;28;20036;-40
2022/03/20 09:29:51;;;;;;;3.97;3.60;;;;;;;19.32;40.66;102605.81;5074861;28;20028;-45
2022/03/20 09:32:17;;;;;;;3.80;3.00;;;;;;;19.31;40.66;102594.41;5077890;28;20059;-43
2022/03/20 09:34:43;;;;;;;3.60;3.28;;;;;;;19.30;40.67;102592.75;5055744;28;20037;-47
2022/03/20 09:37:08;;;;;;;3.90;3.50;;;;;;;19.29;40.31;102593.72;5078885;28;20031;-41
2022/03/20 09:39:34;;;;;;;6.15;3.67;;;;;;;19.27;40.32;102593.03;5088399;28;20114;-40
2022/03/20 09:42:02;;;;;;;9.65;4.05;;;;;;;19.26;40.76;102598.47;5063387;28;20470;-40
2022/03/20 09:44:29;;;;;;;10.15;4.40;;;;;;;19.27;40.78;102608.91;5085166;28;20112;-39
2022/03/20 09:46:55;;;;;;;6.63;4.07;;;;;;;19.32;40.97;102592.59;5065194;28;20189;-41
2022/03/20 09:49:25;;;;;;;9.52;5.15;;;;;;;19.36;41.36;102596.59;5079381;28;20497;-42
2022/03/20 09:51:52;;;;;;;11.30;4.82;;;;;;;19.39;41.56;102593.63;5082673;28;20109;-42
2022/03/20 09:54:17;;;;;;;9.70;4.82;;;;;;;19.41;41.54;102579.28;5076204;28;20063;-43
2022/03/20 09:56:43;;;;;;;4.60;3.90;;;;;;;19.41;41.60;102591.66;5084281;28;20051;-43
2022/03/20 09:59:10;;;;;;;7.45;3.85;;;;;;;19.39;41.45;102586.53;5081674;28;20029;-41
2022/03/20 10:01:36;;;;;;;11.75;3.95;;;;;;;19.38;40.55;102589.31;5081386;28;20062;-43
2022/03/20 10:04:14;;;;;;;6.35;3.75;;;;;;;19.32;40.74;102593.44;5082658;28;20112;-38
2022/03/20 10:06:41;;;;;;;6.07;4.15;;;;;;;19.35;40.88;102579.91;5078619;28;20039;-41
2022/03/20 10:09:13;;;;;;;6.47;3.63;;;;;;;19.37;40.43;102582.41;5081052;28;20084;-42
2022/03/20 10:11:46;;;;;;;7.22;4.13;;;;;;;19.38;40.41;102582.22;5081920;28;20709;-40
2022/03/20 10:14:18;;;;;;;4.25;3.30;;;;;;;19.38;40.02;102591.97;5079073;28;20032;-45
2022/03/20 10:16:50;;;;;;;4.85;3.55;;;;;;;19.37;40.34;102580.59;5079273;28;20036;-43
2022/03/20 10:19:22;;;;;;;5.57;3.40;;;;;;;19.34;40.21;102586.19;5066269;28;20055;-41
2022/03/20 10:21:51;;;;;;;4.65;3.25;;;;;;;19.34;40.32;102580.88;5075523;28;20039;-42
2022/03/20 10:24:18;;;;;;;7.45;3.70;;;;;;;19.33;40.64;102581.88;5077809;28;20043;-42
2022/03/20 10:26:45;;;;;;;8.80;2.60;;;;;;;19.32;40.19;102576.72;5057852;28;20279;-41
2022/03/20 10:29:18;;;;;;;5.47;3.35;;;;;;;19.31;40.15;102573.25;5056609;28;20520;-39
2022/03/20 10:31:55;;;;;;;7.30;3.45;;;;;;;19.31;40.98;102575.91;5086255;28;20104;-38
2022/03/20 10:34:21;;;;;;;4.45;3.03;;;;;;;19.31;41.03;102583.84;5078799;28;20364;-45
2022/03/20 10:36:50;;;;;;;3.67;2.67;;;;;;;19.32;40.53;102574.91;5082998;28;20032;-44
2022/03/20 10:39:19;;;;;;;5.25;3.20;;;;;;;19.32;40.29;102582.03;5083032;28;20066;-40
2022/03/20 10:41:52;;;;;;;7.45;3.58;;;;;;;19.30;40.03;102582.16;5069789;28;20161;-46
2022/03/20 10:44:27;;;;;;;4.40;2.90;;;;;;;19.31;39.79;102578.53;5078187;28;20043;-40
2022/03/20 10:47:16;;;;;;;5.43;3.25;;;;;;;19.28;39.51;102573.56;5084134;28;20047;-39
2022/03/20 10:49:47;;;;;;;7.63;3.05;;;;;;;19.28;39.79;102568.28;5066763;28;20020;-41
2022/03/20 10:52:20;;;;;;;3.63;2.90;;;;;;;19.27;39.67;102569.25;5080320;28;20020;-38
2022/03/20 10:54:53;;;;;;;4.20;3.15;;;;;;;19.27;39.68;102568.44;5065193;28;20067;-45
2022/03/20 10:57:19;;;;;;;5.30;2.58;;;;;;;19.27;39.69;102566.63;5076706;28;20036;-42
2022/03/20 11:00:00;;;;;;;6.32;2.92;;;;;;;19.26;39.70;102564.13;5075464;28;20029;-35
2022/03/20 11:02:26;;;;;;;9.35;2.95;;;;;;;19.26;39.69;102577.34;5085171;28;20372;-41
2022/03/20 11:04:52;;;;;;;6.38;3.13;;;;;;;19.25;39.96;102573.88;5084469;28;20035;-41
2022/03/20 11:07:19;;;;;;;8.75;3.47;;;;;;;19.25;39.95;102576.50;5080055;28;20031;-40
2022/03/20 11:09:54;;;;;;;9.05;3.47;;;;;;;19.22;39.27;102585.56;5072656;28;20078;-45
2022/03/20 11:12:34;;;;;;;18.30;3.10;;;;;;;19.18;38.89;102583.38;5077677;28;20496;-39
2022/03/20 11:15:06;;;;;;;3.83;2.28;;;;;;;19.19;38.89;102571.81;5076043;28;20282;-44
2022/03/20 11:17:50;;;;;;;14.27;3.35;;;;;;;19.15;38.68;102568.63;5068795;28;20024;-39
2022/03/20 11:20:18;;;;;;;16.35;3.40;;;;;;;19.16;38.63;102574.75;5081174;28;20031;-41
2022/03/20 11:22:49;;;;;;;15.40;2.88;;;;;;;19.14;38.70;102582.00;5072453;28;20081;-41
2022/03/20 11:25:20;;;;;;;6.25;3.40;;;;;;;19.15;38.60;102559.88;5082341;28;20150;-40
2022/03/20 11:27:55;;;;;;;7.82;2.97;;;;;;;19.14;38.64;102566.16;5068370;28;20472;-40
2022/03/20 11:30:27;;;;;;;6.78;3.20;;;;;;;19.11;38.54;102566.44;5064890;28;20542;-41
2022/03/20 11:32:54;;;;;;;8.13;2.80;;;;;;;19.12;38.62;102560.19;5056726;28;20112;-42
2022/03/20 11:35:31;;;;;;;7.70;2.83;;;;;;;19.09;38.89;102557.84;5083459;28;20643;-38
2022/03/20 11:38:18;;;;;;;7.53;3.13;;;;;;;19.08;38.74;102550.88;5085370;28;20048;-42
2022/03/20 11:41:04;;;;;;;5.13;2.63;;;;;;;19.07;38.73;102549.22;5065566;28;20503;-41
2022/03/20 11:43:30;;;;;;;9.57;3.03;;;;;;;19.08;38.88;102550.88;5079856;28;20119;-39
2022/03/20 11:46:21;;;;;;;8.43;2.78;;;;;;;19.05;38.75;102541.44;5060902;28;20142;-42
2022/03/20 11:49:17;;;;;;;6.40;2.17;;;;;;;19.04;38.60;102545.06;5067310;28;20059;-41
2022/03/20 11:51:56;;;;;;;9.25;3.35;;;;;;;19.03;38.70;102537.28;5066956;28;20423;-42
2022/03/20 11:54:29;;;;;;;6.68;3.30;;;;;;;19.05;38.64;102533.53;5081157;28;20032;-42
2022/03/20 11:56:54;;;;;;;5.38;2.83;;;;;;;19.06;38.41;102531.72;5083300;28;20035;-40
2022/03/20 11:59:46;;;;;;;4.28;2.92;;;;;;;19.04;37.97;102531.03;5074847;28;20149;-41
2022/03/20 12:02:15;;;;;;;6.65;2.92;;;;;;;19.06;38.22;102521.97;5080116;28;20036;-38
2022/03/20 12:04:55;;;;;;;6.38;3.08;;;;;;;19.05;38.38;102522.13;5076529;28;20028;-39